2001 Severe Tropical Cyclone WALTER (2001091S11111)


IBTrACS version v04r00. Visit IBTrACS website for data access.
Please direct all questions to the IBTrACS Q and A forum

Storm track - Intensity - Wind Radii - Intensity Data - Source Data - All data

Summary Information

Satellite image near maximum intensity
Storm ID 2001091S11111
Start Apr 1 04Z
Max Intensity 90 kt (Apr 5 06Z), 940 mb (Apr 4 21Z)
End Apr 8 10Z
ATCF IDs ,SH172001
Track status Best track data.

Storm track plot

Map of storm track

Intensity plots

Map of storm track

Radial wind information

Map of storm track

Position and Intensity Table

BASIN ISO_TIME_________ NATURE LAT LON WMO WIND WMO PRES USA WIND BOM WIND BOM PRES NEUMANN WIND
degrees north degrees east kts mb kts kts mb kts
SI 2001-04-01 04:00:00 NR -10.70 110.70 25 1003 25 1003
SI 06:00:00 NR -10.55 110.45 25 1002
SI 09:00:00 NR -10.35 110.10 25 1000
SI 10:00:00 NR -10.30 110.00 25 1000 25 1000
SI 12:00:00 NR -10.22 109.82 26 999
SI 15:00:00 NR -10.13 109.58 29 998
SI 16:00:00 NR -10.10 109.50 30 998 30 998
SI 18:00:00 NR -10.03 109.37 31 997
SI 21:00:00 NR -9.93 109.12 34 995
SI 22:00:00 NR -9.90 109.00 35 995 35 995
SI 2001-04-02 00:00:00 NR -9.83 108.68 35 995
SI 03:00:00 NR -9.73 108.09 35 995
SI 04:00:00 NR -9.70 107.90 35 995 35 995
SI 06:00:00 TS -9.68 107.62 25 36 994 25
SI 09:00:00 TS -9.72 107.13 25 39 992 25
SI 10:00:00 TS -9.77 106.95 40 992 25 40 992 25
SI 12:00:00 TS -9.83 106.56 25 40 991 25
SI 15:00:00 TS -9.84 105.91 27 40 990 27
SI 16:00:00 TS -9.84 105.70 40 990 28 40 990 28
SI 18:00:00 TS -9.84 105.27 30 41 989 30
SI 21:00:00 TS -9.86 104.63 35 44 988 35
SI 22:00:00 TS -9.87 104.43 45 988 36 45 988 36
SI 2001-04-03 00:00:00 TS -9.88 104.05 40 46 987 40
SI 03:00:00 TS -9.89 103.59 42 49 985 42
SI 04:00:00 TS -9.90 103.46 50 985 43 50 985 43
SI 06:00:00 TS -9.91 103.21 45 50 983 45
SI 09:00:00 TS -9.92 102.81 50 50 980 50
SI 10:00:00 TS -9.93 102.68 50 980 51 50 980 51
SI 12:00:00 TS -9.94 102.39 55 50 979 55
SI 15:00:00 TS -9.99 101.96 57 50 978 57
SI 16:00:00 TS -10.01 101.82 50 978 58 50 978 58
SI 18:00:00 TS -10.04 101.54 60 53 975 60
SI 21:00:00 TS -10.06 101.09 62 58 971 62
SI 22:00:00 TS -10.06 100.93 60 970 63 60 970 63
SI 2001-04-04 00:00:00 TS -10.08 100.61 65 64 968 65
SI 03:00:00 TS -10.15 100.12 67 72 965 67
SI 04:00:00 TS -10.18 99.95 75 965 68 75 965 68
SI 06:00:00 TS -10.25 99.61 70 76 960 70
SI 09:00:00 TS -10.35 99.12 72 79 952 72
SI 10:00:00 TS -10.39 98.96 80 950 73 80 950 73
SI 12:00:00 TS -10.46 98.68 75 80 948 75
SI 15:00:00 TS -10.57 98.24 77 80 945 77
SI 16:00:00 TS -10.61 98.09 80 945 78 80 945 78
SI 18:00:00 TS -10.71 97.76 80 80 943 80
SI 21:00:00 TS -10.93 97.30 82 80 940 82
SI 22:00:00 TS -11.01 97.17 80 940 83 80 940 83
SI 2001-04-05 00:00:00 TS -11.19 96.98 85 80 940 85
SI 03:00:00 TS -11.45 96.77 87 80 940 87
SI 04:00:00 TS -11.53 96.70 80 940 88 80 940 88
SI 06:00:00 TS -11.67 96.57 90 80 941 90
SI 09:00:00 TS -11.86 96.34 87 80 944 87
SI 10:00:00 TS -11.92 96.27 80 945 86 80 945 86
SI 12:00:00 TS -12.03 96.14 85 80 945 85
SI 15:00:00 TS -12.18 95.95 85 80 945 85
SI 16:00:00 TS -12.24 95.89 80 945 85 80 945 85
SI 18:00:00 TS -12.36 95.74 85 80 946 85
SI 21:00:00 TS -12.56 95.51 82 80 949 80
SI 22:00:00 TS -12.63 95.43 80 950 81 80 950 78
SI 2001-04-06 00:00:00 TS -12.76 95.25 80 80 951 75
SI 03:00:00 TS -12.99 94.96 80 80 954 77
SI 04:00:00 TS -13.07 94.87 80 955 80 80 955 78
SI 06:00:00 TS -13.25 94.72 80 78 956 80
SI 09:00:00 TS -13.49 94.58 77 75 959 77
SI 10:00:00 TS -13.57 94.56 75 960 76 75 960 76
SI 12:00:00 TS -13.72 94.51 75 73 961 75
SI 15:00:00 TS -13.91 94.47 75 70 964 75
SI 16:00:00 TS -13.99 94.47 70 965 75 70 965 75
SI 18:00:00 TS -14.18 94.50 75 68 966 75
SI 21:00:00 TS -14.61 94.64 72 65 969 72
SI 22:00:00 TS -14.80 94.71 65 970 71 65 970 71
SI 2001-04-07 00:00:00 TS -15.21 94.86 70 65 971 70
SI 03:00:00 TS -15.85 95.05 67 65 974 67
SI 04:00:00 TS -16.08 95.10 65 975 66 65 975 66
SI 06:00:00 TS -16.57 95.20 65 61 976 65
SI 09:00:00 TS -17.39 95.32 62 56 979 62
SI 10:00:00 TS -17.68 95.36 55 980 61 55 980 61
SI 12:00:00 TS -18.17 95.39 60 53 981 60
SI 15:00:00 TS -18.78 95.39 55 50 984
SI 16:00:00 TS -18.94 95.36 50 985 53 50 985
SI 18:00:00 TS -19.24 95.28 50 46 986
SI 21:00:00 NR -19.56 95.05 41 989
SI 22:00:00 NR -19.70 95.00 40 990 40 990
SI 2001-04-08 00:00:00 NR -19.98 94.94 38 991
SI 03:00:00 NR -20.44 94.84 35 993
SI 04:00:00 NR -20.60 94.80 35 994 35 994
SI 06:00:00 NR -20.95 94.69 33 995
SI 09:00:00 NR -21.51 94.48 30 997
SI 10:00:00 NR -21.70 94.40 30 998 30 998

Source Information

Agency Information
USA bsh172001.txt
TOKYO
CMA
HKO
NEWDELHI
REUNION
BOM IDCKMSTM0S.csv:Line=21085:WALTER
NADI
WELLINGTON
DS824
TD9636
TD9635
NEUMANN tracks.sh:Storm=1221:WALTER:BSH172001:JTWC
MLC

All available IBTrACS Data

SEASON BASIN SUBBASIN ISO_TIME_________ NATURE LAT LON WMO WIND WMO PRES WMO AGENCY DIST2LAND LANDFALL IFLAG USA AGENCY USA ATCF_ID USA LAT USA LON USA STATUS USA WIND USA SSHS BOM LAT BOM LON BOM TYPE BOM WIND BOM PRES BOM CI BOM ROCI BOM POCI BOM EYE BOM POS_METHOD BOM PRES_METHOD NEUMANN LAT NEUMANN LON NEUMANN CLASS NEUMANN WIND STORM SPEED STORM DIR
Year degrees north degrees east kts mb km km degrees north degrees east kts 1 degrees north degrees east kts mb 1 nmile mb nmile degrees north degrees east kts kts degrees
2001 SI WA 2001-04-01 04:00:00 NR -10.70 110.70 25 1003 bom 274 265 ______O_______ -1 -10.70 110.70 20 25 1003 2.00 64 1010 3 5 9 301
2001 SI WA 06:00:00 NR -10.55 110.45 268 250 ______P_______ -1 -10.55 110.45 20 25 1002 64 1010 8 301
2001 SI WA 09:00:00 NR -10.35 110.10 255 244 ______P_______ -1 -10.35 110.10 20 25 1000 64 1010 8 299
2001 SI WA 10:00:00 NR -10.30 110.00 25 1000 bom 247 240 ______O_______ -1 -10.30 110.00 20 25 1000 2.00 64 1010 3 5 6 296
2001 SI WA 12:00:00 NR -10.22 109.82 244 244 ______P_______ -1 -10.22 109.82 20 26 999 69 1010 5 292
2001 SI WA 15:00:00 NR -10.13 109.58 244 244 ______P_______ -1 -10.13 109.58 20 29 998 77 1010 5 291
2001 SI WA 16:00:00 NR -10.10 109.50 30 998 bom 247 240 ______O_______ -1 -10.10 109.50 20 30 998 2.00 80 1010 3 5 5 294
2001 SI WA 18:00:00 NR -10.03 109.37 240 235 ______P_______ -1 -10.03 109.37 20 31 997 92 1010 5 294
2001 SI WA 21:00:00 NR -9.93 109.12 235 235 ______P_______ -1 -9.93 109.12 20 34 995 111 1010 6 290
2001 SI WA 22:00:00 NR -9.90 109.00 35 995 bom 235 226 ______O_______ -1 -9.90 109.00 30 35 995 2.50 118 1010 3 5 9 283
2001 SI WA 2001-04-02 00:00:00 NR -9.83 108.68 226 213 ______P_______ -1 -9.83 108.68 30 35 995 118 1010 11 281
2001 SI WA 03:00:00 NR -9.73 108.09 215 215 ______P_______ -1 -9.73 108.09 30 35 995 118 1010 12 280
2001 SI WA 04:00:00 NR -9.70 107.90 35 995 bom 219 219 ______O_______ -1 -9.70 107.90 30 35 995 2.50 118 1010 3 5 9 276
2001 SI WA 06:00:00 TS -9.68 107.62 225 225 O_____P_____O_ jtwc_sh SH172001 -9.80 107.70 TD 25 -1 -9.62 107.58 30 36 994 118 1010 -9.80 107.70 TC 25 9 268
2001 SI WA 09:00:00 TS -9.72 107.13 236 236 P_____P_____P_ SH172001 -9.92 107.17 TD 25 -1 -9.52 107.08 30 39 992 118 1010 -9.92 107.17 TC 25 10 262
2001 SI WA 10:00:00 TS -9.77 106.95 40 992 bom 251 251 P_____O_____P_ SH172001 -9.95 106.99 TD 25 -1 -9.50 106.90 30 40 992 2.50 118 1010 3 5 -9.95 106.99 TC 25 11 259
2001 SI WA 12:00:00 TS -9.83 106.56 268 268 O_____P_____O_ jtwc_sh SH172001 -10.00 106.60 TD 25 -1 -9.48 106.48 30 40 991 118 1010 -10.00 106.60 TC 25 12 266
2001 SI WA 15:00:00 TS -9.84 105.91 274 274 P_____P_____P_ SH172001 -10.01 105.96 TD 27 -1 -9.49 105.81 30 40 990 118 1010 -10.01 105.96 TC 27 13 269
2001 SI WA 16:00:00 TS -9.84 105.70 40 990 bom 279 279 P_____O_____P_ SH172001 -10.01 105.74 TD 28 -1 -9.50 105.60 30 40 990 2.50 118 1010 3 6 -10.01 105.74 TC 28 13 270
2001 SI WA 18:00:00 TS -9.84 105.27 294 294 O_____P_____O_ jtwc_sh SH172001 -10.00 105.30 TD 30 -1 -9.53 105.21 30 41 989 118 1010 -10.00 105.30 TC 30 13 269
2001 SI WA 21:00:00 TS -9.86 104.63 343 343 P_____P_____P_ SH172001 -10.00 104.61 TD 35 0 -9.58 104.67 30 44 988 118 1010 -10.00 104.61 TC 35 12 268
2001 SI WA 22:00:00 TS -9.87 104.43 45 988 bom 356 356 P_____O_____P_ SH172001 -10.00 104.39 TD 36 0 -9.60 104.50 30 45 988 3.00 118 1010 3 6 -10.00 104.39 TC 36 12 268
2001 SI WA 2001-04-03 00:00:00 TS -9.88 104.05 371 371 O_____P_____O_ jtwc_sh SH172001 -10.00 104.00 TS 40 0 -9.63 104.15 30 46 987 121 1010 -10.00 104.00 TC 40 10 268
2001 SI WA 03:00:00 TS -9.89 103.59 389 389 P_____P_____P_ SH172001 -10.00 103.56 TS 42 0 -9.68 103.65 30 49 985 127 1010 -10.00 103.56 TC 42 9 268
2001 SI WA 04:00:00 TS -9.90 103.46 50 985 bom 394 394 P_____O_____P_ SH172001 -10.00 103.44 TS 43 0 -9.70 103.50 30 50 985 3.50 130 1010 3 5 -10.00 103.44 TC 43 8 267
2001 SI WA 06:00:00 TS -9.91 103.21 411 411 O_____P_____O_ jtwc_sh SH172001 -10.00 103.20 TS 45 0 -9.73 103.23 30 50 983 130 1010 -10.00 103.20 TC 45 8 268
2001 SI WA 09:00:00 TS -9.92 102.81 436 436 P_____P_____P_ SH172001 -9.99 102.80 TS 50 0 -9.78 102.84 30 50 980 130 1010 -9.99 102.80 TC 50 8 268
2001 SI WA 10:00:00 TS -9.93 102.68 50 980 bom 443 443 P_____O_____P_ SH172001 -9.99 102.67 TS 51 0 -9.80 102.70 30 50 980 3.50 130 1010 3 5 -9.99 102.67 TC 51 8 267
2001 SI WA 12:00:00 TS -9.94 102.39 464 464 O_____P_____O_ jtwc_sh SH172001 -10.00 102.40 TS 55 0 -9.83 102.37 30 50 979 130 1010 -10.00 102.40 TC 55 8 265
2001 SI WA 15:00:00 TS -9.99 101.96 502 502 P_____P_____P_ SH172001 -10.05 102.02 TS 57 0 -9.88 101.86 30 50 978 130 1010 -10.05 102.02 TC 57 8 263
2001 SI WA 16:00:00 TS -10.01 101.82 50 978 bom 518 518 P_____O_____P_ SH172001 -10.07 101.88 TS 58 0 -9.90 101.70 30 50 978 3.50 130 1010 3 5 -10.07 101.88 TC 58 8 263
2001 SI WA 18:00:00 TS -10.04 101.54 542 542 O_____P_____O_ jtwc_sh SH172001 -10.10 101.60 TS 60 0 -9.93 101.42 30 53 975 130 1010 -10.10 101.60 TC 60 9 267
2001 SI WA 21:00:00 TS -10.06 101.09 583 583 P_____P_____P_ SH172001 -10.09 101.11 TS 62 0 -9.98 101.03 30 58 971 130 1010 -10.09 101.11 TC 62 9 269
2001 SI WA 22:00:00 TS -10.06 100.93 60 970 bom 600 600 P_____O_____P_ SH172001 -10.09 100.94 TS 63 0 -10.00 100.90 30 60 970 4.00 130 1010 3 5 -10.09 100.94 TC 63 10 268
2001 SI WA 2001-04-04 00:00:00 TS -10.08 100.61 626 626 O_____P_____O_ jtwc_sh SH172001 -10.10 100.60 TY 65 1 -10.03 100.62 30 64 968 132 1010 -10.10 100.60 TC 65 10 264
2001 SI WA 03:00:00 TS -10.15 100.12 672 672 P_____P_____P_ SH172001 -10.18 100.09 TY 67 1 -10.08 100.16 30 72 965 137 1010 -10.18 100.09 TC 67 10 261
2001 SI WA 04:00:00 TS -10.18 99.95 75 965 bom 687 687 P_____O_____P_ SH172001 -10.22 99.93 TY 68 1 -10.10 100.00 40 75 965 4.50 139 1010 3 5 -10.22 99.93 TC 68 10 258
2001 SI WA 06:00:00 TS -10.25 99.61 730 730 O_____P_____O_ jtwc_sh SH172001 -10.30 99.60 TY 70 1 -10.15 99.63 40 76 960 142 1010 -10.30 99.60 TC 70 10 258
2001 SI WA 09:00:00 TS -10.35 99.12 779 779 P_____P_____P_ SH172001 -10.40 99.14 TY 72 1 -10.26 99.07 40 79 952 148 1010 -10.40 99.14 TC 72 10 258
2001 SI WA 10:00:00 TS -10.39 98.96 80 950 bom 786 786 P_____O_____P_ SH172001 -10.43 98.99 TY 73 1 -10.30 98.90 40 80 950 5.00 151 1010 3 5 -10.43 98.99 TC 73 9 256
2001 SI WA 12:00:00 TS -10.46 98.68 815 815 O_____P_____O_ jtwc_sh SH172001 -10.50 98.70 TY 75 1 -10.39 98.63 40 80 948 154 1010 -10.50 98.70 TC 75 9 256
2001 SI WA 15:00:00 TS -10.57 98.24 857 857 P_____P_____P_ SH172001 -10.58 98.23 TY 77 1 -10.54 98.25 40 80 945 159 1010 -10.58 98.23 TC 77 9 256
2001 SI WA 16:00:00 TS -10.61 98.09 80 945 bom 864 864 P_____O_____P_ SH172001 -10.61 98.08 TY 78 1 -10.60 98.10 40 80 945 5.00 161 1010 3 5 -10.61 98.08 TC 78 10 253
2001 SI WA 18:00:00 TS -10.71 97.76 893 893 O_____P_____O_ jtwc_sh SH172001 -10.70 97.80 TY 80 1 -10.72 97.68 40 80 943 161 1010 -10.70 97.80 TC 80 10 248
2001 SI WA 21:00:00 TS -10.93 97.30 946 946 P_____P_____P_ SH172001 -10.93 97.42 TY 82 1 -10.93 97.06 40 80 940 161 1010 -10.93 97.42 TC 82 10 242
2001 SI WA 22:00:00 TS -11.01 97.17 80 940 bom 961 961 P_____O_____P_ SH172001 -11.02 97.31 TY 83 2 -11.00 96.90 40 80 940 5.00 161 1010 4 4 6 -11.02 97.31 TC 83 8 230
2001 SI WA 2001-04-05 00:00:00 TS -11.19 96.98 992 992 O_____P_____O_ jtwc_sh SH172001 -11.20 97.10 TY 85 2 -11.17 96.73 40 80 940 164 1010 -11.20 97.10 TC 85 7 222
2001 SI WA 03:00:00 TS -11.45 96.77 1024 1024 P_____P_____P_ SH172001 -11.46 96.83 TY 87 2 -11.43 96.63 40 80 940 170 1010 -11.46 96.83 TC 87 6 219
2001 SI WA 04:00:00 TS -11.53 96.70 80 940 bom 1039 1039 P_____O_____P_ SH172001 -11.54 96.76 TY 88 2 -11.50 96.60 40 80 940 5.00 172 1010 3 6 -11.54 96.76 TC 88 6 220
2001 SI WA 06:00:00 TS -11.67 96.57 1063 1063 O_____P_____O_ jtwc_sh SH172001 -11.70 96.60 TY 90 2 -11.62 96.50 40 80 941 172 1010 -11.70 96.60 TC 90 6 226
2001 SI WA 09:00:00 TS -11.86 96.34 1102 1102 P_____P_____P_ SH172001 -11.91 96.34 TY 87 2 -11.76 96.35 40 80 944 172 1010 -11.91 96.34 TC 87 6 229
2001 SI WA 10:00:00 TS -11.92 96.27 80 945 bom 1102 1102 P_____O_____P_ SH172001 -11.98 96.26 TY 86 2 -11.80 96.30 40 80 945 5.00 172 1010 3 6 -11.98 96.26 TC 86 5 231
2001 SI WA 12:00:00 TS -12.03 96.14 1125 1125 O_____P_____O_ jtwc_sh SH172001 -12.10 96.10 TY 85 2 -11.88 96.22 40 80 945 172 1010 -12.10 96.10 TC 85 5 230
2001 SI WA 15:00:00 TS -12.18 95.95 1149 1149 P_____P_____P_ SH172001 -12.26 95.89 TY 85 2 -12.03 96.07 40 80 945 172 1010 -12.26 95.89 TC 85 5 230
2001 SI WA 16:00:00 TS -12.24 95.89 80 945 bom 1156 1156 P_____O_____P_ SH172001 -12.31 95.83 TY 85 2 -12.10 96.00 40 80 945 5.00 172 1010 3 5 -12.31 95.83 TC 85 5 229
2001 SI WA 18:00:00 TS -12.36 95.74 1187 1187 O_____P_____O_ jtwc_sh SH172001 -12.40 95.70 TY 85 2 -12.28 95.83 40 80 946 170 1010 -12.40 95.70 TC 85 6 229
2001 SI WA 21:00:00 TS -12.56 95.51 1218 1218 P_____P_____P_ SH172001 -12.54 95.51 TY 82 1 -12.59 95.51 40 80 949 167 1011 -12.54 95.51 TC 80 6 229
2001 SI WA 22:00:00 TS -12.63 95.43 80 950 bom 1226 1226 P_____O_____P_ SH172001 -12.59 95.44 TY 81 1 -12.70 95.40 40 80 950 5.00 166 1012 3 5 -12.59 95.44 TC 78 7 231
2001 SI WA 2001-04-06 00:00:00 TS -12.76 95.25 1249 1249 O_____P_____O_ jtwc_sh SH172001 -12.70 95.30 TY 80 1 -12.89 95.15 40 80 951 164 1012 -12.70 95.30 TC 75 7 232
2001 SI WA 03:00:00 TS -12.99 94.96 1288 1288 P_____P_____P_ SH172001 -12.89 95.04 TY 80 1 -13.19 94.80 40 80 954 161 1012 -12.89 95.04 TC 77 7 230
2001 SI WA 04:00:00 TS -13.07 94.87 80 955 bom 1304 1304 P_____O_____P_ SH172001 -12.96 94.95 TY 80 1 -13.30 94.70 40 80 955 5.00 161 1012 3 5 -12.96 94.95 TC 78 7 222
2001 SI WA 06:00:00 TS -13.25 94.72 1326 1326 O_____P_____O_ jtwc_sh SH172001 -13.10 94.80 TY 80 1 -13.54 94.56 40 78 956 161 1012 -13.10 94.80 TC 80 6 213
2001 SI WA 09:00:00 TS -13.49 94.58 1358 1358 P_____P_____P_ SH172001 -13.29 94.66 TY 77 1 -13.90 94.43 40 75 959 161 1012 -13.29 94.66 TC 77 5 206
2001 SI WA 10:00:00 TS -13.57 94.56 75 960 bom 1367 1367 P_____O_____P_ SH172001 -13.36 94.63 TY 76 1 -14.00 94.40 40 75 960 4.50 161 1012 3 5 -13.36 94.63 TC 76 5 197
2001 SI WA 12:00:00 TS -13.72 94.51 1382 1382 O_____P_____O_ jtwc_sh SH172001 -13.50 94.60 TY 75 1 -14.15 94.34 40 73 961 159 1012 -13.50 94.60 TC 75 4 193
2001 SI WA 15:00:00 TS -13.91 94.47 1399 1399 P_____P_____P_ SH172001 -13.70 94.56 TY 75 1 -14.33 94.30 40 70 964 157 1012 -13.70 94.56 TC 75 4 188
2001 SI WA 16:00:00 TS -13.99 94.47 70 965 bom 1407 1407 P_____O_____P_ SH172001 -13.78 94.56 TY 75 1 -14.40 94.30 40 70 965 4.50 157 1012 3 5 -13.78 94.56 TC 75 5 175
2001 SI WA 18:00:00 TS -14.18 94.50 1424 1424 O_____P_____O_ jtwc_sh SH172001 -14.00 94.60 TY 75 1 -14.54 94.29 40 68 966 155 1012 -14.00 94.60 TC 75 8 165
2001 SI WA 21:00:00 TS -14.61 94.64 1450 1441 P_____P_____P_ SH172001 -14.50 94.78 TY 72 1 -14.84 94.35 40 65 969 152 1012 -14.50 94.78 TC 72 10 162
2001 SI WA 22:00:00 TS -14.80 94.71 65 970 bom 1455 1453 P_____O_____P_ SH172001 -14.69 94.86 TY 71 1 -15.00 94.40 40 65 970 4.50 151 1012 3 5 -14.69 94.86 TC 71 13 160
2001 SI WA 2001-04-07 00:00:00 TS -15.21 94.86 1465 1465 O_____P_____O_ jtwc_sh SH172001 -15.10 95.00 TY 70 1 -15.42 94.57 40 65 971 149 1012 -15.10 95.00 TC 70 13 163
2001 SI WA 03:00:00 TS -15.85 95.05 1500 1499 P_____P_____P_ SH172001 -15.66 95.12 TY 67 1 -16.22 94.89 40 65 974 146 1012 -15.66 95.12 TC 67 14 165
2001 SI WA 04:00:00 TS -16.08 95.10 65 975 bom 1514 1514 P_____O_____P_ SH172001 -15.86 95.15 TY 66 1 -16.50 95.00 40 65 975 4.50 145 1012 3 5 -15.86 95.15 TC 66 15 168
2001 SI WA 06:00:00 TS -16.57 95.20 1545 1545 O_____P_____O_ jtwc_sh SH172001 -16.30 95.20 TY 65 1 -17.11 95.21 40 61 976 143 1012 -16.30 95.20 TC 65 16 171
2001 SI WA 09:00:00 TS -17.39 95.32 1601 1601 P_____P_____P_ SH172001 -17.06 95.24 TY 62 0 -17.97 95.46 40 56 979 140 1012 -17.06 95.25 TC 62 17 172
2001 SI WA 10:00:00 TS -17.68 95.36 55 980 bom 1618 1618 P_____O_____P_ SH172001 -17.34 95.26 TY 61 0 -18.20 95.50 30 55 980 4.00 139 1012 3 5 -17.34 95.27 TC 61 16 176
2001 SI WA 12:00:00 TS -18.17 95.39 1660 1660 O_____P_____O_ jtwc_sh SH172001 -17.90 95.30 TS 60 0 -18.51 95.49 30 53 981 139 1012 -17.90 95.30 TC 60 13 178
2001 SI WA 15:00:00 TS -18.78 95.39 1711 1711 P_____P_______ SH172001 -18.75 95.43 TS 55 0 -18.80 95.36 30 50 984 139 1012 TC 12 0
2001 SI WA 16:00:00 TS -18.94 95.36 50 985 bom 1720 1720 P_____O_______ SH172001 -19.03 95.48 TS 53 0 -18.90 95.30 30 50 985 3.50 139 1012 3 5 TC 10 192
2001 SI WA 18:00:00 TS -19.24 95.28 1753 1753 O_____P_______ jtwc_sh SH172001 -19.60 95.60 TS 50 0 -19.15 95.20 30 46 986 137 1012 8 206
2001 SI WA 21:00:00 NR -19.56 95.05 1807 1807 ______P_______ SH172001 TS -1 -19.56 95.05 30 41 989 134 1012 8 210
2001 SI WA 22:00:00 NR -19.70 95.00 40 990 bom 1816 1816 ______O_______ SH172001 TS -1 -19.70 95.00 30 40 990 3.00 134 1012 3 5 9 194
2001 SI WA 2001-04-08 00:00:00 NR -19.98 94.94 1849 1849 ______P_______ -1 -19.98 94.94 30 38 991 134 1012 9 191
2001 SI WA 03:00:00 NR -20.44 94.84 1890 1890 ______P_______ -1 -20.44 94.84 30 35 993 134 1012 10 192
2001 SI WA 04:00:00 NR -20.60 94.80 35 994 bom 1908 1908 ______O_______ -1 -20.60 94.80 30 35 994 2.50 134 1012 3 5 11 195
2001 SI WA 06:00:00 NR -20.95 94.69 1941 1941 ______P_______ -1 -20.95 94.69 30 33 995 125 1012 12 198
2001 SI WA 09:00:00 NR -21.51 94.48 1959 1957 ______P_______ -1 -21.51 94.48 30 30 997 111 1012 12 200
2001 SI WA 10:00:00 NR -21.70 94.40 30 998 bom 1964 ______O_______ -1 -21.70 94.40 20 30 998 2.00 107 1012 3 5 12 199